This is the latest recevied weather packets stored in our database for station/object N1KM-15. If no packets are shown the sender has not sent any weather packets the latest 10 day(s).
| Time | Temp. | Humidity | Pressure | Rain* | Wind** | Luminosity | Snow |
|---|---|---|---|---|---|---|---|
| 1777491000 | 17.22° C | 60% | 1010.9 hPa | 0 mm | - | - | - |
| 1777490101 | 17.22° C | 61% | 1011.2 hPa | 0 mm | - | - | - |
| 1777489200 | 17.78° C | 58% | 1011.4 hPa | 0 mm | - | - | - |
| 1777488300 | 18.33° C | 57% | 1011.2 hPa | 0 mm | - | - | - |
| 1777487400 | 17.78° C | 57% | 1011.3 hPa | 0 mm | - | - | - |
| 1777486500 | 18.33° C | 57% | 1011.5 hPa | 0 mm | - | - | - |
| 1777485600 | 18.33° C | 58% | 1011.4 hPa | 0 mm | - | - | - |
| 1777484700 | 16.67° C | 61% | 1011.5 hPa | 0 mm | - | - | - |
| 1777483800 | 17.78° C | 56% | 1011.8 hPa | 0 mm | - | - | - |
| 1777482900 | 16.67° C | 59% | 1011.7 hPa | 0 mm | - | - | - |
| 1777482000 | 16.11° C | 62% | 1011.6 hPa | 0 mm | - | - | - |
| 1777481100 | 15.56° C | 61% | 1011.7 hPa | 0 mm | - | - | - |
| 1777480200 | 14.44° C | 65% | 1011.8 hPa | 0 mm | - | - | - |
| 1777479300 | 13.89° C | 69% | 1012.2 hPa | 0 mm | - | - | - |
| 1777478400 | 13.89° C | 67% | 1012.3 hPa | 0 mm | - | - | - |
| 1777477500 | 13.33° C | 69% | 1012.3 hPa | 0 mm | - | - | - |
| 1777476600 | 13.89° C | 67% | 1012.4 hPa | 0 mm | - | - | - |
| 1777475700 | 13.89° C | 67% | 1012.6 hPa | 0 mm | - | - | - |
| 1777474800 | 12.78° C | 71% | 1013.1 hPa | 0 mm | - | - | - |
| 1777473900 | 11.11° C | 75% | 1013.4 hPa | 0 mm | - | - | - |
| 1777473000 | 11.11° C | 75% | 1014 hPa | 0 mm | - | - | - |
| 1777472100 | 10.56° C | 76% | 1014.4 hPa | 0 mm | - | - | - |
| 1777471200 | 11.11° C | 76% | 1014.5 hPa | 0 mm | - | - | - |
| 1777470300 | 10° C | 80% | 1014.5 hPa | 0 mm | - | - | - |
| 1777469400 | 10° C | 81% | 1014.6 hPa | 0 mm | - | - | - |
* Rain since midnight (hover to see other rain measurements)
** Current wind speed in m/s (hover to see current wind gust speed)